Terminal Aerodrome Forecast
Issued by NWS

Home | Current Version | Previous Version | Text Only | Print | Product List | Glossary On
Versions: 1 2 3 4 5 6 7 8 9 10 11 12 13 14
000
FTUS46 KOTX 161921 AAA
TAFSFF
TAF AMD
KSFF 161921Z 1619/1718 22010KT 6SM -RA FEW013 BKN025 OVC030
     FM162100 22008KT P6SM -SHRA BKN030 OVC050
     FM170200 20003KT P6SM OVC070
     FM170600 VRB04KT P6SM BKN060 OVC100
     FM171500 16002KT P6SM -RA SCT030 BKN040 OVC050=

USA.gov is the U.S. government's official web portal to all federal, state and local government web resources and services.